Impacts TAF Board
For situational awareness. Not to be used for flight planning purposes.
IDs:

KBTV - Burlington Intl, VT, US

Issued at 2320 UTC 28 Nov 2020
Updated at 0234 UTC 29 Nov 2020
Potential Impact None Slight Moderate High
Time0154Z 29/03Z 29/04Z 29/05Z 29/06Z 29/07Z 29/08Z 29/09Z 29/10Z 29/11Z 29/12Z 29/13Z 29/14Z 29/15Z>>
Type OBS PRVL PRVL PRVL PRVL PRVL PRVL PRVL PRVL PRVL PRVL PRVL PRVL PRVL
VIS 10 >6 >6 >6 >6 >6 >6 >6 >6 >6 >6 >6 >6 >6
CIG 50 60 60 -- -- -- -- -- -- -- -- -- -- --
Cover OVC BKN BKN SCT SCT SCT SCT SCT SCT SCT SCT SCT SCT SCT
FltCat VFR VFR VFR VFR VFR VFR VFR VFR VFR VFR VFR VFR VFR VFR
WX -- -- -- -- -- -- -- -- -- -- -- -- -- --
WDir VRB 240 240 200 200 200 200 200 200 200 200 200 200 200
WSpd 0 4 4 6 6 6 6 6 6 6 6 6 6 6
WGst -- -- -- -- -- -- -- -- -- -- -- -- -- --
R01/19
XWnd VRB 4 4 3 3 3 3 3 3 3 3 3 3 3
HWnd VRB -1 -1 -5 -5 -5 -5 -5 -5 -5 -5 -5 -5 -5
R15/33
XWnd VRB -4 -4 -6 -6 -6 -6 -6 -6 -6 -6 -6 -6 -6
HWnd VRB -1 -1 2 2 2 2 2 2 2 2 2 2 2
Raw TAF
KBTV 282320Z 2900/2924 24004KT P6SM BKN060
  FM290500 20006KT P6SM SCT070
  FM291800 18008KT P6SM FEW200


Raw METAR
KBTV 290154Z 00000KT 10SM OVC050 03/02 A2997 RMK AO2 SLP150 T00330017
KBTV 290054Z 00000KT 10SM FEW043 OVC060 03/02 A2997 RMK AO2 SLP150 T00330017
KBTV 282354Z 26004KT 10SM FEW055 BKN075 03/01 A2996 RMK AO2 SLP149 60003 T00280011 10067 20017 51014

METAR Board
Radar Display
Forecast Discussion
For situational awareness. Not to be used for flight planning purposes.